createdAt,value
2022-10-05T00:01:56.707Z,20.58
2022-10-05T00:03:59.156Z,20.58
2022-10-05T00:06:00.498Z,20.57
2022-10-05T00:08:02.114Z,20.57
2022-10-05T00:10:03.393Z,20.56
2022-10-05T00:12:04.689Z,20.54
2022-10-05T00:14:05.963Z,20.55
2022-10-05T00:16:07.253Z,20.56
2022-10-05T00:18:08.575Z,20.61
2022-10-05T00:20:09.856Z,20.62
2022-10-05T00:22:11.350Z,20.62
2022-10-05T00:24:12.615Z,20.61
2022-10-05T00:26:13.902Z,20.61
2022-10-05T00:28:15.203Z,20.59
2022-10-05T00:30:16.502Z,20.58
2022-10-05T00:32:17.775Z,20.59
2022-10-05T00:34:19.053Z,20.61
2022-10-05T00:36:20.389Z,20.60
2022-10-05T00:38:21.653Z,20.58
2022-10-05T00:40:22.971Z,20.60
2022-10-05T00:42:24.262Z,20.58
2022-10-05T00:44:25.583Z,20.57
2022-10-05T00:46:27.385Z,20.56
2022-10-05T00:48:28.682Z,20.55
2022-10-05T00:50:30.019Z,20.54
2022-10-05T00:52:31.320Z,20.53
2022-10-05T00:54:32.614Z,20.54
2022-10-05T00:56:33.874Z,20.54
2022-10-05T00:58:35.139Z,20.53
2022-10-05T01:00:36.490Z,20.53
2022-10-05T01:02:37.829Z,20.53
2022-10-05T01:04:39.127Z,20.53
2022-10-05T01:06:40.474Z,20.53
2022-10-05T01:08:41.890Z,20.51
2022-10-05T01:10:43.201Z,20.49
2022-10-05T01:12:44.495Z,20.49
2022-10-05T01:14:45.771Z,20.48
2022-10-05T01:16:47.176Z,20.48
2022-10-05T01:18:48.918Z,20.50
2022-10-05T01:20:50.280Z,20.50
2022-10-05T01:22:51.552Z,20.49
2022-10-05T01:24:52.824Z,20.50
2022-10-05T01:26:54.091Z,20.48
2022-10-05T01:28:55.385Z,20.50
2022-10-05T01:30:56.654Z,20.49
2022-10-05T01:32:57.949Z,20.50
2022-10-05T01:34:59.234Z,20.50
2022-10-05T01:37:00.498Z,20.51
2022-10-05T01:39:01.754Z,20.50
2022-10-05T01:41:03.039Z,20.48
2022-10-05T01:43:04.306Z,20.45
2022-10-05T01:45:05.587Z,20.45
2022-10-05T01:47:06.877Z,20.47
2022-10-05T01:49:08.342Z,20.47
2022-10-05T01:51:09.622Z,20.45
2022-10-05T01:53:10.890Z,20.43
2022-10-05T01:55:12.171Z,20.43
2022-10-05T01:57:13.439Z,20.42
2022-10-05T01:59:16.695Z,20.44
2022-10-05T02:01:18.089Z,20.46
2022-10-05T02:03:20.222Z,20.46
2022-10-05T02:05:21.494Z,20.47
2022-10-05T02:07:22.791Z,20.48
2022-10-05T02:09:24.128Z,20.51
2022-10-05T02:11:25.431Z,20.53
2022-10-05T02:13:26.713Z,20.54
2022-10-05T02:15:28.035Z,20.55
2022-10-05T02:17:29.705Z,20.56
2022-10-05T02:19:30.978Z,20.58
2022-10-05T02:21:32.455Z,20.59
2022-10-05T02:23:33.807Z,20.62
2022-10-05T02:25:35.084Z,20.63
2022-10-05T02:27:36.407Z,20.71
2022-10-05T02:29:37.687Z,20.72
2022-10-05T02:31:39.015Z,20.73
2022-10-05T02:33:40.559Z,20.71
2022-10-05T02:35:41.835Z,20.72
2022-10-05T02:37:43.214Z,20.72
2022-10-05T02:39:44.647Z,20.72
2022-10-05T02:41:45.967Z,20.86
2022-10-05T02:43:47.299Z,20.80
2022-10-05T02:45:48.632Z,20.67
2022-10-05T02:47:49.923Z,20.55
2022-10-05T02:49:51.207Z,20.46
2022-10-05T02:51:52.488Z,20.41
2022-10-05T02:53:53.787Z,20.34
2022-10-05T02:55:55.081Z,20.30
2022-10-05T02:57:56.384Z,20.40
2022-10-05T02:59:57.646Z,20.63
2022-10-05T03:01:59.050Z,20.52
2022-10-05T03:04:00.378Z,20.42
2022-10-05T03:06:01.659Z,20.34
2022-10-05T03:08:02.991Z,20.29
2022-10-05T03:10:04.270Z,20.28
2022-10-05T03:12:05.550Z,20.27
2022-10-05T03:14:06.856Z,20.25
2022-10-05T03:16:08.213Z,20.24
2022-10-05T03:18:09.564Z,20.23
2022-10-05T03:20:10.889Z,20.23
2022-10-05T03:22:12.151Z,20.22
2022-10-05T03:24:13.595Z,20.20
2022-10-05T03:26:14.873Z,20.19
2022-10-05T03:28:16.226Z,20.18
2022-10-05T03:30:17.597Z,20.17
2022-10-05T03:32:18.878Z,20.18
2022-10-05T03:34:20.177Z,20.17
2022-10-05T03:36:21.565Z,20.19
2022-10-05T03:38:22.875Z,20.18
2022-10-05T03:40:24.169Z,20.19
2022-10-05T03:42:25.486Z,20.20
2022-10-05T03:44:26.794Z,20.20
2022-10-05T03:46:28.108Z,20.20
2022-10-05T03:48:30.014Z,20.20
2022-10-05T03:50:31.350Z,20.20
2022-10-05T03:52:32.659Z,20.22
2022-10-05T03:54:33.948Z,20.21
2022-10-05T03:56:35.219Z,20.19
2022-10-05T03:58:36.526Z,20.19
2022-10-05T04:00:37.799Z,20.20
2022-10-05T04:02:39.146Z,20.19
2022-10-05T04:04:40.456Z,20.18
2022-10-05T04:06:41.715Z,20.17
2022-10-05T04:08:47.623Z,20.15
2022-10-05T04:10:49.550Z,20.11
2022-10-05T04:12:50.835Z,20.10
2022-10-05T04:14:52.120Z,20.07
2022-10-05T04:16:53.391Z,20.05
2022-10-05T04:18:54.669Z,20.02
2022-10-05T04:20:55.923Z,20.01
2022-10-05T04:22:57.203Z,19.99
2022-10-05T04:24:58.515Z,20.00
2022-10-05T04:26:59.839Z,19.99
2022-10-05T04:29:01.131Z,19.99
2022-10-05T04:31:02.463Z,20.00
2022-10-05T04:33:03.843Z,20.01
2022-10-05T04:35:05.168Z,20.02
2022-10-05T04:37:06.470Z,20.02
2022-10-05T04:39:07.774Z,20.03
2022-10-05T04:41:09.058Z,20.05
2022-10-05T04:43:10.402Z,20.03
2022-10-05T04:45:11.681Z,20.03
2022-10-05T04:47:12.939Z,20.03
2022-10-05T04:49:14.244Z,20.03
2022-10-05T04:51:15.515Z,20.01
2022-10-05T04:53:16.887Z,20.03
2022-10-05T04:55:18.174Z,20.03
2022-10-05T04:57:19.457Z,20.03
2022-10-05T04:59:21.703Z,20.05
2022-10-05T05:01:23.084Z,20.06
2022-10-05T05:03:24.496Z,20.06
2022-10-05T05:05:25.818Z,20.06
2022-10-05T05:07:27.125Z,20.08
2022-10-05T05:09:28.378Z,20.07
2022-10-05T05:11:29.689Z,20.09
2022-10-05T05:13:30.967Z,20.10
2022-10-05T05:15:32.231Z,20.10
2022-10-05T05:17:33.507Z,20.10
2022-10-05T05:19:35.587Z,20.11
2022-10-05T05:21:38.005Z,20.10
2022-10-05T05:23:39.313Z,20.08
2022-10-05T05:25:40.570Z,20.07
2022-10-05T05:27:41.896Z,20.06
2022-10-05T05:29:43.347Z,20.03
2022-10-05T05:31:44.906Z,20.01
2022-10-05T05:33:46.759Z,19.99
2022-10-05T05:35:48.083Z,19.98
2022-10-05T05:37:49.412Z,19.97
2022-10-05T05:39:50.670Z,19.97
2022-10-05T05:41:51.992Z,19.98
2022-10-05T05:43:53.345Z,19.99
2022-10-05T05:45:54.610Z,20.02
2022-10-05T05:47:57.347Z,20.01
2022-10-05T05:50:00.880Z,20.01
2022-10-05T05:52:07.066Z,20.03
2022-10-05T05:54:08.327Z,20.03
2022-10-05T05:56:09.610Z,20.03
2022-10-05T05:58:10.978Z,20.02
2022-10-05T06:00:12.274Z,20.00
2022-10-05T06:02:13.654Z,19.99
2022-10-05T06:04:14.973Z,19.96
2022-10-05T06:06:16.318Z,19.95
2022-10-05T06:08:17.594Z,19.94
2022-10-05T06:10:18.870Z,19.94
2022-10-05T06:12:20.159Z,19.95
2022-10-05T06:14:21.531Z,19.95
2022-10-05T06:16:23.248Z,19.96
2022-10-05T06:18:24.818Z,19.98
2022-10-05T06:20:26.096Z,19.99
2022-10-05T06:22:27.387Z,19.99
2022-10-05T06:24:28.818Z,20.00
2022-10-05T06:26:30.103Z,20.00
2022-10-05T06:28:32.095Z,20.02
2022-10-05T06:30:33.410Z,20.02
2022-10-05T06:32:34.895Z,20.01
2022-10-05T06:34:36.183Z,20.01
2022-10-05T06:36:37.462Z,20.02
2022-10-05T06:38:39.010Z,20.03
2022-10-05T06:40:40.284Z,19.22
2022-10-05T06:42:41.559Z,20.01
2022-10-05T06:44:42.827Z,20.01
2022-10-05T06:46:44.489Z,19.97
2022-10-05T06:48:45.905Z,19.97
2022-10-05T06:50:47.175Z,19.94
2022-10-05T06:52:48.466Z,19.93
2022-10-05T06:54:49.783Z,19.91
2022-10-05T06:56:51.062Z,19.89
2022-10-05T06:58:52.384Z,19.88
2022-10-05T07:00:53.765Z,19.86
2022-10-05T07:02:55.071Z,19.83
2022-10-05T07:04:56.383Z,19.80
2022-10-05T07:06:57.680Z,19.79
2022-10-05T07:08:58.962Z,19.77
2022-10-05T07:11:00.467Z,19.77
2022-10-05T07:13:01.866Z,19.75
2022-10-05T07:15:03.632Z,19.73
2022-10-05T07:17:04.919Z,19.72
2022-10-05T07:19:06.242Z,19.70
2022-10-05T07:21:07.559Z,19.69
2022-10-05T07:23:08.889Z,19.68
2022-10-05T07:25:10.184Z,19.67
2022-10-05T07:27:11.450Z,19.66
2022-10-05T07:29:12.841Z,19.65
2022-10-05T07:31:14.195Z,19.63
2022-10-05T07:33:15.562Z,19.62
2022-10-05T07:35:35.477Z,19.60
2022-10-05T07:37:54.999Z,19.58
2022-10-05T07:40:00.480Z,19.58
2022-10-05T07:42:03.291Z,19.57
2022-10-05T07:44:07.757Z,19.55
2022-10-05T07:46:11.537Z,19.56
2022-10-05T07:48:12.849Z,19.57
2022-10-05T07:50:14.371Z,19.57
2022-10-05T07:52:15.671Z,19.57
2022-10-05T07:54:17.091Z,19.57
2022-10-05T07:56:18.362Z,19.59
2022-10-05T07:58:19.678Z,19.60
2022-10-05T08:00:21.000Z,19.61
2022-10-05T08:02:22.560Z,19.61
2022-10-05T08:04:23.987Z,19.62
2022-10-05T08:06:25.311Z,19.63
2022-10-05T08:08:26.598Z,19.61
2022-10-05T08:10:27.860Z,19.63
2022-10-05T08:12:29.693Z,19.60
2022-10-05T08:14:31.490Z,19.60
2022-10-05T08:16:32.817Z,19.60
2022-10-05T08:18:34.107Z,19.60
2022-10-05T08:20:35.403Z,19.59
2022-10-05T08:22:36.732Z,19.58
2022-10-05T08:24:38.008Z,19.58
2022-10-05T08:26:39.485Z,19.58
2022-10-05T08:28:40.776Z,19.56
2022-10-05T08:30:42.088Z,19.56
2022-10-05T08:32:43.884Z,19.56
2022-10-05T08:34:45.802Z,19.55
2022-10-05T08:36:51.553Z,19.54
2022-10-05T08:38:55.230Z,19.53
2022-10-05T08:40:57.027Z,19.53
2022-10-05T08:42:58.348Z,19.53
2022-10-05T08:44:59.640Z,19.52
2022-10-05T08:47:00.903Z,19.50
2022-10-05T08:49:02.351Z,19.50
2022-10-05T08:51:03.614Z,19.49
2022-10-05T08:53:04.916Z,19.49
2022-10-05T08:55:06.227Z,19.48
2022-10-05T08:57:07.494Z,19.46
2022-10-05T08:59:08.771Z,19.46
2022-10-05T09:01:10.115Z,19.45
2022-10-05T09:03:11.549Z,19.44
2022-10-05T09:05:12.847Z,19.44
2022-10-05T09:07:14.206Z,19.43
2022-10-05T09:09:15.518Z,19.44
2022-10-05T09:11:17.107Z,19.43
2022-10-05T09:13:18.850Z,19.42
2022-10-05T09:15:27.159Z,19.41
2022-10-05T09:17:28.571Z,19.42
2022-10-05T09:19:29.843Z,19.41
2022-10-05T09:21:31.118Z,19.40
2022-10-05T09:23:32.384Z,19.37
2022-10-05T09:25:33.671Z,19.37
2022-10-05T09:27:34.942Z,19.37
2022-10-05T09:29:36.259Z,19.36
2022-10-05T09:31:37.557Z,19.36
2022-10-05T09:33:38.831Z,19.35
2022-10-05T09:35:40.123Z,19.36
2022-10-05T09:37:41.421Z,19.36
2022-10-05T09:39:43.122Z,19.35
2022-10-05T09:41:44.789Z,19.36
2022-10-05T09:43:46.257Z,19.38
2022-10-05T09:45:48.846Z,19.39
2022-10-05T09:47:50.592Z,19.40
2022-10-05T09:49:51.911Z,19.40
2022-10-05T09:51:53.218Z,19.41
2022-10-05T09:53:54.596Z,19.42
2022-10-05T09:55:56.049Z,19.42
2022-10-05T09:57:57.309Z,19.44
2022-10-05T09:59:58.638Z,19.44
2022-10-05T10:01:59.975Z,19.44
2022-10-05T10:04:01.325Z,19.43
2022-10-05T10:06:02.604Z,19.42
2022-10-05T10:08:04.730Z,19.43
2022-10-05T10:10:06.038Z,19.42
2022-10-05T10:12:07.342Z,19.43
2022-10-05T10:14:08.631Z,19.42
2022-10-05T10:16:09.980Z,19.41
2022-10-05T10:18:11.295Z,19.41
2022-10-05T10:20:12.565Z,19.42
2022-10-05T10:22:14.058Z,19.41
2022-10-05T10:24:15.314Z,19.41
2022-10-05T10:26:16.646Z,19.41
2022-10-05T10:28:18.524Z,19.38
2022-10-05T10:30:19.911Z,19.38
2022-10-05T10:32:21.179Z,19.36
2022-10-05T10:34:22.440Z,19.33
2022-10-05T10:36:23.774Z,19.32
2022-10-05T10:38:25.239Z,19.30
2022-10-05T10:40:26.919Z,19.29
2022-10-05T10:42:28.852Z,19.28
2022-10-05T10:44:30.505Z,19.28
2022-10-05T10:46:31.837Z,19.28
2022-10-05T10:48:33.362Z,19.29
2022-10-05T10:50:34.922Z,19.29
2022-10-05T10:52:36.201Z,19.29
2022-10-05T10:54:37.475Z,19.30
2022-10-05T10:56:38.775Z,19.31
2022-10-05T10:58:40.128Z,19.30
2022-10-05T11:00:42.063Z,19.30
2022-10-05T11:02:43.768Z,19.29
2022-10-05T11:04:45.086Z,19.30
2022-10-05T11:06:46.440Z,19.31
2022-10-05T11:08:47.713Z,19.32
2022-10-05T11:10:49.031Z,19.32
2022-10-05T11:12:50.362Z,19.33
2022-10-05T11:14:52.417Z,19.35
2022-10-05T11:16:53.734Z,19.35
2022-10-05T11:18:55.053Z,19.35
2022-10-05T11:20:56.355Z,19.36
2022-10-05T11:22:57.683Z,19.37
2022-10-05T11:24:59.188Z,19.37
2022-10-05T11:27:00.599Z,19.38
2022-10-05T11:29:01.878Z,19.38
2022-10-05T11:31:03.221Z,19.38
2022-10-05T11:33:06.231Z,19.38
2022-10-05T11:35:07.503Z,19.39
2022-10-05T11:37:08.779Z,19.40
2022-10-05T11:39:11.102Z,19.39
2022-10-05T11:41:12.357Z,19.40
2022-10-05T11:43:13.667Z,19.41
2022-10-05T11:45:15.000Z,19.42
2022-10-05T11:47:16.293Z,19.42
2022-10-05T11:49:17.552Z,19.41
2022-10-05T11:51:18.854Z,19.43
2022-10-05T11:53:20.135Z,19.42
2022-10-05T11:55:22.121Z,19.42
2022-10-05T11:57:24.034Z,19.41
2022-10-05T11:59:26.587Z,19.39
2022-10-05T12:01:27.878Z,19.40
2022-10-05T12:03:29.273Z,19.38
2022-10-05T12:05:33.123Z,19.37
2022-10-05T12:07:34.391Z,19.36
2022-10-05T12:09:35.684Z,19.37
2022-10-05T12:11:37.002Z,19.36
2022-10-05T12:13:38.285Z,19.37
2022-10-05T12:15:40.783Z,19.38
2022-10-05T12:17:42.242Z,19.38
2022-10-05T12:19:43.535Z,19.39
2022-10-05T12:21:44.817Z,19.38
2022-10-05T12:23:46.408Z,19.37
2022-10-05T12:25:48.256Z,19.52
2022-10-05T12:27:49.731Z,19.94
2022-10-05T12:29:50.998Z,19.93
2022-10-05T12:31:52.266Z,19.92
2022-10-05T12:33:53.542Z,19.93
2022-10-05T12:35:55.672Z,19.86
2022-10-05T12:37:57.029Z,20.05
2022-10-05T12:39:58.313Z,20.50
2022-10-05T12:41:59.756Z,20.14
2022-10-05T12:44:02.479Z,20.87
2022-10-05T12:46:03.819Z,21.27
2022-10-05T12:48:05.115Z,21.58
2022-10-05T12:50:06.374Z,21.64
2022-10-05T12:52:07.650Z,21.74
2022-10-05T12:54:08.928Z,21.91
2022-10-05T12:56:10.462Z,21.97
2022-10-05T12:58:11.935Z,22.19
2022-10-05T13:00:13.218Z,22.05
2022-10-05T13:02:14.534Z,21.88
2022-10-05T13:04:17.406Z,21.18
2022-10-05T13:06:18.890Z,20.79
2022-10-05T13:08:20.228Z,20.59
2022-10-05T13:10:22.523Z,20.52
2022-10-05T13:12:25.983Z,20.49
2022-10-05T13:14:27.262Z,20.44
2022-10-05T13:16:28.660Z,20.42
2022-10-05T13:18:30.210Z,20.39
2022-10-05T13:20:31.487Z,20.36
2022-10-05T13:22:33.303Z,20.38
2022-10-05T13:24:34.642Z,20.46
2022-10-05T13:26:35.965Z,20.47
2022-10-05T13:28:37.266Z,20.43
2022-10-05T13:30:38.570Z,20.43
2022-10-05T13:32:39.847Z,20.53
2022-10-05T13:34:41.119Z,20.65
2022-10-05T13:36:42.402Z,20.60
2022-10-05T13:38:43.707Z,20.50
2022-10-05T13:40:44.967Z,20.47
2022-10-05T13:42:48.296Z,20.43
2022-10-05T13:44:49.784Z,20.40
2022-10-05T13:46:51.118Z,20.41
2022-10-05T13:48:52.461Z,20.41
2022-10-05T13:50:55.298Z,21.00
2022-10-05T13:52:56.594Z,21.91
2022-10-05T13:54:57.952Z,21.96
2022-10-05T13:56:59.292Z,22.13
2022-10-05T13:59:00.695Z,21.72
2022-10-05T14:01:01.994Z,21.64
2022-10-05T14:03:03.331Z,21.57
2022-10-05T14:05:04.702Z,21.57
2022-10-05T14:07:06.043Z,21.54
2022-10-05T14:09:07.336Z,21.52
2022-10-05T14:11:09.873Z,21.49
2022-10-05T14:13:11.189Z,21.53
2022-10-05T14:15:12.511Z,21.57
2022-10-05T14:17:13.818Z,21.62
2022-10-05T14:19:15.121Z,21.61
2022-10-05T14:21:16.995Z,21.63
2022-10-05T14:23:22.340Z,21.66
2022-10-05T14:25:24.007Z,21.52
2022-10-05T14:27:25.323Z,21.17
2022-10-05T14:29:26.740Z,20.95
2022-10-05T14:31:28.053Z,20.84
2022-10-05T14:33:29.412Z,20.76
2022-10-05T14:35:30.691Z,20.71
2022-10-05T14:37:31.970Z,20.68
2022-10-05T14:39:33.398Z,20.64
2022-10-05T14:41:34.686Z,20.62
2022-10-05T14:43:35.970Z,20.60
2022-10-05T14:45:37.334Z,20.57
2022-10-05T14:47:39.674Z,20.56
2022-10-05T14:49:40.987Z,20.54
2022-10-05T14:51:42.822Z,20.56
2022-10-05T14:53:44.130Z,20.59
2022-10-05T14:55:45.413Z,20.59
2022-10-05T14:57:46.794Z,20.58
2022-10-05T14:59:48.061Z,20.61
2022-10-05T15:01:49.353Z,20.61
2022-10-05T15:03:51.296Z,20.61
2022-10-05T15:05:52.550Z,20.62
2022-10-05T15:07:57.243Z,20.64
2022-10-05T15:09:58.586Z,20.69
2022-10-05T15:11:59.877Z,20.63
2022-10-05T15:14:01.154Z,20.57
2022-10-05T15:16:02.434Z,20.80
2022-10-05T15:18:03.857Z,21.27
2022-10-05T15:20:06.497Z,21.35
2022-10-05T15:22:07.839Z,21.37
2022-10-05T15:24:09.360Z,21.46
2022-10-05T15:26:10.657Z,21.28
2022-10-05T15:28:12.005Z,21.61
2022-10-05T15:30:13.292Z,21.80
2022-10-05T15:32:14.801Z,21.48
2022-10-05T15:34:16.132Z,21.34
2022-10-05T15:36:17.685Z,21.30
2022-10-05T15:38:20.723Z,21.33
2022-10-05T15:40:22.010Z,21.34
2022-10-05T15:42:23.290Z,21.36
2022-10-05T15:44:26.002Z,21.36
2022-10-05T15:46:28.981Z,21.40
2022-10-05T15:48:30.345Z,21.45
2022-10-05T15:50:32.346Z,21.47
2022-10-05T15:52:33.659Z,21.47
2022-10-05T15:54:41.856Z,21.60
2022-10-05T15:56:43.258Z,21.50
2022-10-05T15:58:44.587Z,21.43
2022-10-05T16:00:45.862Z,21.42
2022-10-05T16:02:47.260Z,21.26
2022-10-05T16:04:48.618Z,20.94
2022-10-05T16:07:08.643Z,20.76
2022-10-05T16:09:09.931Z,20.64
2022-10-05T16:11:13.659Z,20.56
2022-10-05T16:13:19.103Z,20.53
2022-10-05T16:15:22.087Z,20.51
2022-10-05T16:17:24.169Z,21.10
2022-10-05T16:19:25.500Z,21.53
2022-10-05T16:21:26.821Z,21.36
2022-10-05T16:23:28.150Z,21.29
2022-10-05T16:25:29.420Z,21.28
2022-10-05T16:27:30.711Z,21.30
2022-10-05T16:29:32.962Z,21.35
2022-10-05T16:31:37.402Z,21.39
2022-10-05T16:33:41.274Z,21.55
2022-10-05T16:35:44.653Z,21.78
2022-10-05T16:37:45.919Z,21.61
2022-10-05T16:39:48.612Z,21.54
2022-10-05T16:41:50.144Z,21.47
2022-10-05T16:43:51.420Z,21.47
2022-10-05T16:45:53.017Z,21.80
2022-10-05T16:47:54.348Z,21.73
2022-10-05T16:49:55.612Z,21.60
2022-10-05T16:51:56.900Z,21.28
2022-10-05T16:53:59.192Z,21.05
2022-10-05T16:56:00.695Z,20.92
2022-10-05T16:58:01.972Z,20.83
2022-10-05T17:00:03.738Z,20.76
2022-10-05T17:02:05.156Z,20.72
2022-10-05T17:04:06.718Z,20.68
2022-10-05T17:06:07.985Z,20.65
2022-10-05T17:08:09.280Z,20.62
2022-10-05T17:10:10.546Z,20.61
2022-10-05T17:12:11.807Z,20.57
2022-10-05T17:14:16.068Z,20.56
2022-10-05T17:16:17.446Z,20.53
2022-10-05T17:18:18.755Z,20.52
2022-10-05T17:20:20.109Z,20.48
2022-10-05T17:22:22.658Z,20.46
2022-10-05T17:24:23.935Z,20.44
2022-10-05T17:26:25.250Z,20.41
2022-10-05T17:28:26.961Z,20.40
2022-10-05T17:30:28.587Z,20.40
2022-10-05T17:32:30.158Z,20.40
2022-10-05T17:34:34.329Z,20.39
2022-10-05T17:36:37.513Z,20.39
2022-10-05T17:38:41.655Z,20.39
2022-10-05T17:40:42.975Z,20.38
2022-10-05T17:42:44.256Z,20.37
2022-10-05T17:44:45.535Z,20.38
2022-10-05T17:46:47.959Z,20.36
2022-10-05T17:48:49.255Z,20.35
2022-10-05T17:51:09.263Z,20.33
2022-10-05T17:53:28.956Z,20.30
2022-10-05T17:55:30.627Z,20.29
2022-10-05T17:57:31.999Z,20.26
2022-10-05T17:59:33.283Z,20.22
2022-10-05T18:01:34.652Z,20.21
2022-10-05T18:03:36.065Z,20.18
2022-10-05T18:05:37.403Z,20.16
2022-10-05T18:07:38.680Z,20.16
2022-10-05T18:09:40.002Z,20.14
2022-10-05T18:11:41.537Z,20.12
2022-10-05T18:13:45.454Z,20.10
2022-10-05T18:15:55.827Z,20.08
2022-10-05T18:18:20.255Z,20.07
2022-10-05T18:20:25.200Z,20.05
2022-10-05T18:22:26.489Z,20.42
2022-10-05T18:24:28.265Z,20.70
2022-10-05T18:26:29.607Z,20.84
2022-10-05T18:28:31.267Z,20.98
2022-10-05T18:30:32.597Z,21.10
2022-10-05T18:32:34.765Z,21.17
2022-10-05T18:34:36.254Z,21.24
2022-10-05T18:36:39.131Z,21.22
2022-10-05T18:38:42.476Z,21.28
2022-10-05T18:40:44.228Z,21.29
2022-10-05T18:42:45.508Z,21.42
2022-10-05T18:44:46.788Z,21.64
2022-10-05T18:46:48.139Z,21.48
2022-10-05T18:48:49.932Z,21.47
2022-10-05T18:50:51.224Z,21.49
2022-10-05T18:52:53.178Z,21.55
2022-10-05T18:54:55.007Z,21.58
2022-10-05T18:56:56.600Z,21.60
2022-10-05T18:58:57.945Z,21.62
2022-10-05T19:00:59.321Z,21.54
2022-10-05T19:03:01.633Z,21.20
2022-10-05T19:05:03.451Z,21.31
2022-10-05T19:07:06.474Z,21.37
2022-10-05T19:09:07.799Z,21.44
2022-10-05T19:11:09.173Z,21.52
2022-10-05T19:13:10.519Z,21.55
2022-10-05T19:15:11.851Z,21.54
2022-10-05T19:17:13.287Z,21.98
2022-10-05T19:19:14.620Z,21.79
2022-10-05T19:21:18.196Z,21.81
2022-10-05T19:23:19.516Z,21.70
2022-10-05T19:25:20.943Z,21.65
2022-10-05T19:27:22.256Z,21.64
2022-10-05T19:29:23.584Z,21.70
2022-10-05T19:31:24.913Z,21.84
2022-10-05T19:33:26.346Z,21.82
2022-10-05T19:35:27.739Z,21.94
2022-10-05T19:37:30.986Z,21.83
2022-10-05T19:39:32.304Z,21.77
2022-10-05T19:41:33.813Z,21.72
2022-10-05T19:43:35.109Z,21.71
2022-10-05T19:45:36.695Z,21.30
2022-10-05T19:47:41.137Z,21.11
2022-10-05T19:49:43.916Z,20.98
2022-10-05T19:51:45.200Z,20.94
2022-10-05T19:53:49.435Z,20.90
2022-10-05T19:55:50.719Z,20.86
2022-10-05T19:57:52.055Z,20.82
2022-10-05T19:59:53.322Z,20.80
2022-10-05T20:01:54.744Z,20.78
2022-10-05T20:03:58.024Z,20.75
2022-10-05T20:05:59.370Z,20.72
2022-10-05T20:08:01.222Z,20.71
2022-10-05T20:10:02.489Z,21.04
2022-10-05T20:12:03.869Z,21.31
2022-10-05T20:14:06.674Z,21.61
2022-10-05T20:16:26.639Z,21.63
2022-10-05T20:18:46.816Z,21.33
2022-10-05T20:20:49.386Z,20.65
2022-10-05T20:22:50.853Z,20.65
2022-10-05T20:24:52.195Z,20.72
2022-10-05T20:27:02.598Z,20.73
2022-10-05T20:29:03.903Z,20.73
2022-10-05T20:31:05.208Z,20.73
2022-10-05T20:33:10.432Z,20.71
2022-10-05T20:35:11.734Z,20.70
2022-10-05T20:37:13.016Z,20.68
2022-10-05T20:39:15.782Z,20.66
2022-10-05T20:41:17.055Z,20.66
2022-10-05T20:43:18.321Z,20.66
2022-10-05T20:45:19.602Z,20.64
2022-10-05T20:47:20.893Z,20.63
2022-10-05T20:49:25.578Z,20.61
2022-10-05T20:51:28.906Z,20.58
2022-10-05T20:53:30.174Z,20.56
2022-10-05T20:55:31.449Z,20.53
2022-10-05T20:57:32.762Z,18.97
2022-10-05T20:59:34.062Z,20.49
2022-10-05T21:01:35.375Z,20.46
2022-10-05T21:03:36.684Z,20.44
2022-10-05T21:05:37.959Z,20.43
2022-10-05T21:07:39.608Z,20.40
2022-10-05T21:09:42.385Z,20.38
2022-10-05T21:11:43.663Z,20.36
2022-10-05T21:13:45.359Z,20.33
2022-10-05T21:15:46.643Z,20.32
2022-10-05T21:17:47.923Z,20.31
2022-10-05T21:19:49.279Z,20.30
2022-10-05T21:21:50.578Z,20.28
2022-10-05T21:23:51.952Z,20.25
2022-10-05T21:25:53.211Z,20.25
2022-10-05T21:27:54.530Z,20.26
2022-10-05T21:29:55.822Z,20.23
2022-10-05T21:31:57.199Z,20.24
2022-10-05T21:33:58.575Z,20.22
2022-10-05T21:35:59.903Z,20.22
2022-10-05T21:38:01.182Z,20.22
2022-10-05T21:40:02.487Z,20.21
2022-10-05T21:42:03.810Z,20.21
2022-10-05T21:44:06.714Z,20.21
2022-10-05T21:46:08.085Z,20.20
2022-10-05T21:48:09.379Z,20.19
2022-10-05T21:50:10.691Z,20.17
2022-10-05T21:52:11.982Z,20.15
2022-10-05T21:54:13.314Z,19.35
2022-10-05T21:56:14.759Z,20.12
2022-10-05T21:58:16.083Z,20.08
2022-10-05T22:00:17.402Z,19.25
2022-10-05T22:02:18.731Z,20.05
2022-10-05T22:04:20.068Z,20.02
2022-10-05T22:06:21.737Z,20.00
2022-10-05T22:08:23.300Z,20.00
2022-10-05T22:10:25.139Z,20.00
2022-10-05T22:12:26.781Z,19.98
2022-10-05T22:14:28.343Z,19.97
2022-10-05T22:16:31.423Z,19.12
2022-10-05T22:18:32.787Z,19.95
2022-10-05T22:20:34.476Z,19.98
2022-10-05T22:22:35.766Z,19.99
2022-10-05T22:24:37.075Z,20.00
2022-10-05T22:26:38.414Z,20.00
2022-10-05T22:28:39.805Z,20.00
2022-10-05T22:30:41.172Z,19.99
2022-10-05T22:32:42.577Z,20.00
2022-10-05T22:34:43.917Z,20.00
2022-10-05T22:36:45.881Z,20.01
2022-10-05T22:38:47.672Z,20.02
2022-10-05T22:40:49.031Z,20.02
2022-10-05T22:42:50.350Z,20.01
2022-10-05T22:44:51.619Z,19.99
2022-10-05T22:46:52.899Z,19.99
2022-10-05T22:48:54.158Z,20.00
2022-10-05T22:50:55.433Z,19.99
2022-10-05T22:52:56.769Z,20.00
2022-10-05T22:54:58.054Z,20.04
2022-10-05T22:56:59.388Z,20.04
2022-10-05T22:59:00.693Z,20.03
2022-10-05T23:01:03.619Z,20.03
2022-10-05T23:03:05.066Z,20.01
2022-10-05T23:05:06.334Z,20.01
2022-10-05T23:07:07.602Z,19.99
2022-10-05T23:09:08.904Z,20.00
2022-10-05T23:11:10.187Z,19.99
2022-10-05T23:13:11.510Z,19.98
2022-10-05T23:15:12.796Z,20.00
2022-10-05T23:17:14.056Z,20.01
2022-10-05T23:19:15.339Z,20.01
2022-10-05T23:21:16.624Z,20.01
2022-10-05T23:23:17.934Z,20.02
2022-10-05T23:25:19.379Z,20.03
2022-10-05T23:27:20.702Z,20.06
2022-10-05T23:29:22.195Z,20.07
2022-10-05T23:31:23.539Z,20.08
2022-10-05T23:33:24.862Z,20.10
2022-10-05T23:35:26.158Z,20.13
2022-10-05T23:37:28.056Z,20.17
2022-10-05T23:39:29.334Z,20.10
2022-10-05T23:41:30.607Z,20.10
2022-10-05T23:43:33.835Z,20.08
2022-10-05T23:45:35.155Z,20.09
2022-10-05T23:47:36.443Z,20.10
2022-10-05T23:49:37.727Z,20.11
2022-10-05T23:51:39.172Z,20.11
2022-10-05T23:53:40.494Z,20.12
2022-10-05T23:55:41.839Z,20.11
2022-10-05T23:57:43.176Z,20.10
2022-10-05T23:59:44.492Z,20.09
